createdAt,value
2018-07-19T00:01:27.779Z,100183.84
2018-07-19T00:03:08.741Z,100133.27
2018-07-19T00:04:46.844Z,99969.52
2018-07-19T00:06:23.332Z,100016.31
2018-07-19T00:08:00.838Z,100144.02
2018-07-19T00:09:38.522Z,100274.09
2018-07-19T00:11:18.212Z,100338.97
2018-07-19T00:12:55.860Z,100394.06
2018-07-19T00:14:34.522Z,100412.45
2018-07-19T00:16:12.241Z,100483.16
2018-07-19T00:17:49.957Z,100507.09
2018-07-19T00:19:28.481Z,100567.29
2018-07-19T00:21:05.931Z,100603.73
2018-07-19T00:22:45.106Z,100555.25
2018-07-19T00:24:22.261Z,100587.84
2018-07-19T00:25:58.813Z,100556.13
2018-07-19T00:27:37.382Z,100524.66
2018-07-19T00:29:15.870Z,100507.41
2018-07-19T00:30:55.383Z,100457.03
2018-07-19T00:32:31.820Z,100325.78
2018-07-19T00:34:09.861Z,100169.05
2018-07-19T00:35:49.578Z,100086.12
2018-07-19T00:37:32.617Z,100161.15
2018-07-19T00:39:10.496Z,100328.23
2018-07-19T00:40:47.621Z,100377.51
2018-07-19T00:42:26.074Z,100340.61
2018-07-19T00:44:02.581Z,100395.83
2018-07-19T00:45:40.302Z,100396.70
2018-07-19T00:47:18.638Z,100404.36
2018-07-19T00:48:56.696Z,100431.84
2018-07-19T00:50:33.287Z,100460.91
2018-07-19T00:52:10.357Z,100497.34
2018-07-19T00:53:46.889Z,100506.23
2018-07-19T00:55:23.887Z,100463.04
2018-07-19T00:57:01.081Z,100452.89
2018-07-19T00:58:37.539Z,100458.58
2018-07-19T01:00:17.212Z,100478.75
2018-07-19T01:01:54.169Z,100490.75
2018-07-19T01:03:30.666Z,100488.52
2018-07-19T01:05:07.329Z,100445.42
2018-07-19T01:06:47.095Z,100438.23
2018-07-19T01:08:25.892Z,100424.98
2018-07-19T01:10:06.035Z,100359.98
2018-07-19T01:11:44.868Z,100409.02
2018-07-19T01:13:21.768Z,100481.56
2018-07-19T01:15:00.489Z,100504.23
2018-07-19T01:17:05.209Z,100484.66
2018-07-19T01:18:56.990Z,100248.13
2018-07-19T01:20:35.300Z,100195.59
2018-07-19T01:22:11.804Z,100084.77
2018-07-19T01:23:51.346Z,100005.45
2018-07-19T01:25:27.867Z,99896.20
2018-07-19T01:27:06.974Z,99782.77
2018-07-19T01:28:43.596Z,99675.49
2018-07-19T01:30:20.497Z,99678.58
2018-07-19T01:31:57.274Z,99614.00
2018-07-19T01:33:34.181Z,99622.88
2018-07-19T01:35:10.890Z,99694.13
2018-07-19T01:36:47.643Z,99678.20
2018-07-19T01:38:24.853Z,99634.33
2018-07-19T01:40:03.080Z,99713.70
2018-07-19T01:42:30.412Z,99863.84
2018-07-19T01:44:10.048Z,99958.77
2018-07-19T01:45:48.675Z,99965.05
2018-07-19T01:47:26.502Z,100048.54
2018-07-19T01:49:02.937Z,100142.14
2018-07-19T01:50:40.497Z,100154.50
2018-07-19T01:52:18.694Z,100222.97
2018-07-19T01:53:56.431Z,100290.01
2018-07-19T01:55:34.979Z,100233.63
2018-07-19T01:57:13.355Z,99888.02
2018-07-19T01:58:50.194Z,99757.20
2018-07-19T02:00:27.247Z,99696.06
2018-07-19T02:02:03.852Z,99612.87
2018-07-19T02:03:40.505Z,99579.33
2018-07-19T02:05:17.452Z,99691.23
2018-07-19T02:06:56.182Z,99754.63
2018-07-19T02:08:34.097Z,99865.05
2018-07-19T02:10:11.003Z,99920.38
2018-07-19T02:11:48.859Z,99954.16
2018-07-19T02:13:25.327Z,99854.45
2018-07-19T02:15:01.756Z,99749.41
2018-07-19T02:16:39.950Z,99671.03
2018-07-19T02:18:16.583Z,99563.92
2018-07-19T02:19:53.735Z,99563.92
2018-07-19T02:21:30.424Z,99583.38
2018-07-19T02:23:07.398Z,99645.38
2018-07-19T02:24:44.258Z,99569.72
2018-07-19T02:26:22.583Z,99457.75
2018-07-19T02:27:59.417Z,99431.86
2018-07-19T02:29:36.291Z,99409.99
2018-07-19T02:31:14.761Z,99414.53
2018-07-19T02:32:51.553Z,99453.03
2018-07-19T02:34:28.850Z,99506.98
2018-07-19T02:36:05.322Z,99545.05
2018-07-19T02:37:42.083Z,99578.80
2018-07-19T02:39:18.675Z,99475.08
2018-07-19T02:40:55.132Z,99406.52
2018-07-19T02:42:35.841Z,99248.44
2018-07-19T02:44:16.584Z,99149.59
2018-07-19T02:45:56.145Z,99153.64
2018-07-19T02:47:33.145Z,99134.23
2018-07-19T02:49:10.350Z,99126.24
2018-07-19T02:50:48.341Z,99184.09
2018-07-19T02:52:25.105Z,99185.34
2018-07-19T02:54:01.987Z,99235.28
2018-07-19T02:55:38.703Z,99223.83
2018-07-19T02:57:16.178Z,99230.85
2018-07-19T02:58:54.057Z,99359.13
2018-07-19T03:00:30.875Z,99472.23
2018-07-19T03:02:11.790Z,99499.59
2018-07-19T03:03:50.760Z,99589.03
2018-07-19T03:05:33.884Z,99641.27
2018-07-19T03:07:11.341Z,99547.98
2018-07-19T03:08:47.997Z,99443.19
2018-07-19T03:10:24.595Z,99319.88
2018-07-19T03:12:01.605Z,99285.31
2018-07-19T03:13:39.853Z,99302.77
2018-07-19T03:16:54.402Z,99334.00
2018-07-19T03:18:31.166Z,99337.33
2018-07-19T03:20:11.746Z,99383.09
2018-07-19T03:21:49.198Z,99468.03
2018-07-19T03:23:27.713Z,99412.75
2018-07-19T03:25:07.528Z,99384.93
2018-07-19T03:26:44.351Z,99397.27
2018-07-19T03:28:21.708Z,99428.38
2018-07-19T03:29:58.316Z,99451.29
2018-07-19T03:31:34.835Z,99462.34
2018-07-19T03:33:13.466Z,99380.62
2018-07-19T03:34:50.052Z,99325.48
2018-07-19T03:36:26.473Z,99195.03
2018-07-19T03:38:02.776Z,99081.34
2018-07-19T03:39:39.196Z,98998.33
2018-07-19T03:41:16.524Z,98935.73
2018-07-19T03:42:52.974Z,98856.17
2018-07-19T03:44:30.605Z,98790.83
2018-07-19T03:46:08.772Z,98789.11
2018-07-19T03:47:45.887Z,98762.25
2018-07-19T03:49:22.763Z,98752.20
2018-07-19T03:51:00.070Z,98715.17
2018-07-19T03:52:36.891Z,98713.83
2018-07-19T03:54:13.900Z,98712.97
2018-07-19T03:55:51.748Z,98672.41
2018-07-19T03:57:28.147Z,98641.16
2018-07-19T03:59:04.909Z,98631.13
2018-07-19T04:00:42.214Z,98646.55
2018-07-19T04:02:19.431Z,98685.39
2018-07-19T04:03:56.501Z,98707.45
2018-07-19T04:05:34.086Z,98760.14
2018-07-19T04:07:11.269Z,98820.98
2018-07-19T04:08:48.380Z,98857.41
2018-07-19T04:10:24.969Z,98928.83
2018-07-19T04:12:02.330Z,98932.38
2018-07-19T04:13:49.900Z,98960.75
2018-07-19T04:15:28.289Z,99001.64
2018-07-19T04:17:04.730Z,99007.41
2018-07-19T04:18:42.259Z,99014.50
2018-07-19T04:20:33.782Z,99033.93
2018-07-19T04:22:11.153Z,98989.95
2018-07-19T04:23:49.117Z,99016.34
2018-07-19T04:25:26.063Z,99058.73
2018-07-19T04:27:02.793Z,99109.94
2018-07-19T04:28:39.265Z,99192.39
2018-07-19T04:30:18.045Z,99272.31
2018-07-19T04:31:55.750Z,99345.38
2018-07-19T04:33:32.082Z,99359.03
2018-07-19T04:35:08.548Z,99349.78
2018-07-19T04:36:45.519Z,99341.44
2018-07-19T04:38:22.053Z,99315.36
2018-07-19T04:39:58.356Z,99292.84
2018-07-19T04:41:34.976Z,99252.48
2018-07-19T04:43:12.704Z,99277.37
2018-07-19T04:44:50.279Z,99336.62
2018-07-19T04:46:38.456Z,99348.67
2018-07-19T04:48:15.096Z,99331.80
2018-07-19T04:49:51.439Z,99294.78
2018-07-19T04:51:28.343Z,99326.16
2018-07-19T04:53:06.282Z,99376.97
2018-07-19T04:54:45.915Z,99446.38
2018-07-19T04:56:23.729Z,99536.13
2018-07-19T04:58:00.588Z,99563.69
2018-07-19T04:59:37.190Z,99563.59
2018-07-19T05:01:13.908Z,99594.63
2018-07-19T05:02:51.337Z,99617.70
2018-07-19T05:04:29.553Z,99599.17
2018-07-19T05:06:07.476Z,99581.03
2018-07-19T05:07:43.787Z,99575.75
2018-07-19T05:09:22.528Z,99503.59
2018-07-19T05:11:01.118Z,99437.73
2018-07-19T05:12:38.262Z,99465.67
2018-07-19T05:14:18.749Z,99509.00
2018-07-19T05:15:57.502Z,99622.72
2018-07-19T05:17:36.096Z,99658.66
2018-07-19T05:19:12.399Z,99650.30
2018-07-19T05:20:50.747Z,99747.69
2018-07-19T05:22:27.169Z,99850.16
2018-07-19T05:24:05.568Z,99887.88
2018-07-19T05:25:42.796Z,99906.02
2018-07-19T05:27:21.188Z,99975.28
2018-07-19T05:28:58.348Z,100066.69
2018-07-19T05:30:35.372Z,100102.23
2018-07-19T05:32:11.798Z,100126.20
2018-07-19T05:33:49.833Z,100105.81
2018-07-19T05:35:26.170Z,100153.76
2018-07-19T05:37:02.960Z,100133.84
2018-07-19T05:38:40.541Z,100146.33
2018-07-19T05:40:17.305Z,100229.47
2018-07-19T05:41:53.753Z,100289.75
2018-07-19T05:43:31.554Z,100221.34
2018-07-19T05:45:10.240Z,100165.08
2018-07-19T05:46:49.122Z,100019.92
2018-07-19T05:48:25.465Z,99917.07
2018-07-19T05:50:03.345Z,99836.47
2018-07-19T05:51:40.620Z,99728.83
2018-07-19T05:53:17.561Z,99650.40
2018-07-19T05:54:54.577Z,99546.83
2018-07-19T05:56:33.604Z,99472.38
2018-07-19T05:58:11.463Z,99445.51
2018-07-19T05:59:49.101Z,99436.16
2018-07-19T06:01:29.428Z,99465.33
2018-07-19T06:03:08.525Z,99507.80
2018-07-19T06:04:46.872Z,99537.47
2018-07-19T06:06:27.453Z,99534.87
2018-07-19T06:08:05.983Z,99497.70
2018-07-19T06:09:43.348Z,99541.14
2018-07-19T06:11:20.727Z,99592.40
2018-07-19T06:12:57.995Z,99675.34
2018-07-19T06:14:35.158Z,99718.59
2018-07-19T06:16:12.550Z,99694.33
2018-07-19T06:17:51.752Z,99739.06
2018-07-19T06:19:29.398Z,99738.67
2018-07-19T06:21:06.802Z,99732.88
2018-07-19T06:22:45.214Z,99741.37
2018-07-19T06:24:24.815Z,99770.22
2018-07-19T06:26:02.177Z,99748.91
2018-07-19T06:27:39.602Z,99693.55
2018-07-19T06:29:46.691Z,99650.14
2018-07-19T06:31:53.081Z,99648.41
2018-07-19T06:33:31.253Z,99685.16
2018-07-19T06:35:08.693Z,99769.36
2018-07-19T06:36:45.812Z,99863.33
2018-07-19T06:38:23.477Z,100044.42
2018-07-19T06:40:00.574Z,100219.64
2018-07-19T06:41:38.178Z,100230.48
2018-07-19T06:43:22.507Z,100184.27
2018-07-19T06:44:59.461Z,100179.33
2018-07-19T06:46:36.814Z,100197.11
2018-07-19T06:48:15.607Z,100206.50
2018-07-19T06:49:52.430Z,100326.48
2018-07-19T06:51:30.293Z,100447.47
2018-07-19T06:53:10.877Z,100330.06
2018-07-19T06:54:47.908Z,100200.30
2018-07-19T06:56:28.069Z,100093.31
2018-07-19T06:58:06.373Z,100193.27
2018-07-19T06:59:44.721Z,100431.59
2018-07-19T07:01:21.297Z,100525.83
2018-07-19T07:02:58.765Z,100403.52
2018-07-19T07:04:37.793Z,100278.64
2018-07-19T07:06:16.310Z,100441.75
2018-07-19T07:07:53.548Z,100586.88
2018-07-19T07:09:30.804Z,100812.81
2018-07-19T07:11:09.355Z,100868.63
2018-07-19T07:12:46.535Z,100915.05
2018-07-19T07:14:23.732Z,100801.77
2018-07-19T07:16:01.706Z,100567.49
2018-07-19T07:17:43.483Z,100493.19
2018-07-19T07:19:21.548Z,100537.56
2018-07-19T07:20:57.975Z,100534.55
2018-07-19T07:22:35.932Z,100441.09
2018-07-19T07:24:15.711Z,100321.55
2018-07-19T07:25:56.695Z,100285.03
2018-07-19T07:27:33.339Z,100415.33
2018-07-19T07:29:10.600Z,100440.22
2018-07-19T07:30:48.802Z,100433.91
2018-07-19T07:32:25.892Z,100459.38
2018-07-19T07:34:04.278Z,100447.78
2018-07-19T07:35:40.530Z,100460.25
2018-07-19T07:37:32.566Z,100634.86
2018-07-19T07:39:14.030Z,100685.18
2018-07-19T07:40:50.439Z,100792.05
2018-07-19T07:42:28.568Z,100974.17
2018-07-19T07:44:06.380Z,100999.13
2018-07-19T07:45:44.894Z,100977.20
2018-07-19T07:47:23.272Z,100845.72
2018-07-19T07:49:00.813Z,100744.05
2018-07-19T07:50:38.242Z,100601.93
2018-07-19T07:52:14.558Z,100640.29
2018-07-19T07:53:51.511Z,100690.12
2018-07-19T07:55:27.922Z,100773.93
2018-07-19T07:57:04.458Z,100974.17
2018-07-19T07:58:41.531Z,101184.10
2018-07-19T08:00:20.057Z,101518.59
2018-07-19T08:01:56.971Z,101795.56
2018-07-19T08:03:36.457Z,102028.51
2018-07-19T08:05:15.743Z,102317.98
2018-07-19T08:06:52.175Z,102336.45
2018-07-19T08:08:29.502Z,102387.32
2018-07-19T08:10:08.120Z,102419.73
2018-07-19T08:11:44.526Z,102227.67
2018-07-19T08:13:21.843Z,101817.30
2018-07-19T08:15:00.517Z,101462.00
2018-07-19T08:16:39.476Z,101362.75
2018-07-19T08:18:17.969Z,101429.36
2018-07-19T08:19:54.325Z,101284.95
2018-07-19T08:21:31.799Z,101177.55
2018-07-19T08:23:08.999Z,101159.36
2018-07-19T08:24:47.596Z,101102.59
2018-07-19T08:26:26.033Z,101005.17
2018-07-19T08:28:04.215Z,101009.73
2018-07-19T08:29:43.272Z,101040.62
2018-07-19T08:31:27.610Z,101090.53
2018-07-19T08:33:04.482Z,101135.53
2018-07-19T08:34:42.343Z,101158.88
2018-07-19T08:36:21.298Z,101313.52
2018-07-19T08:37:59.344Z,101404.22
2018-07-19T08:39:37.114Z,101257.11
2018-07-19T08:41:15.524Z,101419.03
2018-07-19T08:42:53.846Z,101362.59
2018-07-19T08:44:38.666Z,101491.52
2018-07-19T08:46:18.936Z,101675.95
2018-07-19T08:47:55.847Z,102038.47
2018-07-19T08:49:32.708Z,102044.33
2018-07-19T08:51:12.580Z,101943.80
2018-07-19T08:52:50.691Z,101946.52
2018-07-19T08:54:27.194Z,102252.00
2018-07-19T08:56:13.525Z,102462.48
2018-07-19T08:57:51.438Z,102608.47
2018-07-19T08:59:33.751Z,102618.75
2018-07-19T09:01:11.927Z,102679.20
2018-07-19T09:02:48.277Z,102768.85
2018-07-19T09:04:25.384Z,102962.43
2018-07-19T09:06:03.005Z,102733.72
2018-07-19T09:07:39.437Z,102291.24
2018-07-19T09:09:17.743Z,102025.31
2018-07-19T09:10:54.871Z,101927.28
2018-07-19T09:12:34.862Z,101905.72
2018-07-19T09:14:12.796Z,101767.15
2018-07-19T09:15:49.872Z,101715.05
2018-07-19T09:17:28.917Z,101896.25
2018-07-19T09:19:09.803Z,102253.36
2018-07-19T09:20:48.100Z,102476.91
2018-07-19T09:22:27.569Z,102692.16
2018-07-19T09:24:06.613Z,102859.03
2018-07-19T09:25:47.471Z,102713.33
2018-07-19T09:27:25.700Z,102413.92
2018-07-19T09:29:04.483Z,102442.72
2018-07-19T09:30:45.700Z,102452.61
2018-07-19T09:32:23.513Z,102774.67
2018-07-19T09:34:00.695Z,103035.95
2018-07-19T09:35:38.232Z,102860.40
2018-07-19T09:37:28.502Z,102797.77
2018-07-19T09:39:09.000Z,102923.56
2018-07-19T09:43:19.170Z,102392.72
2018-07-19T09:44:55.407Z,102358.47
2018-07-19T09:46:33.939Z,102568.64
2018-07-19T09:48:11.426Z,102641.21
2018-07-19T09:49:51.015Z,102802.55
2018-07-19T09:51:28.302Z,103051.26
2018-07-19T09:53:07.521Z,103097.32
2018-07-19T09:54:57.150Z,103102.67
2018-07-19T09:56:37.309Z,103118.88
2018-07-19T09:58:16.902Z,102805.19
2018-07-19T09:59:53.825Z,102798.92
2018-07-19T10:01:32.050Z,102953.19
2018-07-19T10:03:10.703Z,103093.14
2018-07-19T10:04:47.961Z,103177.54
2018-07-19T10:06:25.873Z,102967.60
2018-07-19T10:08:03.253Z,102897.64
2018-07-19T10:09:42.593Z,103043.86
2018-07-19T10:11:19.328Z,103229.16
2018-07-19T10:12:57.266Z,103208.71
2018-07-19T10:14:38.981Z,103111.55
2018-07-19T10:16:19.328Z,103147.20
2018-07-19T10:17:56.633Z,103225.45
2018-07-19T10:19:36.592Z,103272.48
2018-07-19T10:21:14.671Z,103340.31
2018-07-19T10:22:54.253Z,103376.84
2018-07-19T10:24:31.355Z,103423.97
2018-07-19T10:26:10.412Z,103514.95
2018-07-19T10:27:47.662Z,103418.00
2018-07-19T10:29:25.366Z,103456.52
2018-07-19T10:31:02.214Z,103472.36
2018-07-19T10:32:38.981Z,103472.36
2018-07-19T10:34:15.666Z,103086.94
2018-07-19T10:35:54.251Z,102690.81
2018-07-19T10:37:31.982Z,102420.03
2018-07-19T10:39:10.362Z,102548.34
2018-07-19T10:42:25.099Z,102990.24
2018-07-19T10:44:06.244Z,103131.57
2018-07-19T10:45:50.101Z,103289.30
2018-07-19T10:47:28.218Z,103426.84
2018-07-19T10:49:13.910Z,103461.69
2018-07-19T10:50:52.656Z,103390.14
2018-07-19T10:52:34.792Z,103487.42
2018-07-19T10:54:13.173Z,103635.03
2018-07-19T10:55:52.575Z,103742.42
2018-07-19T10:57:31.440Z,103858.47
2018-07-19T10:59:09.898Z,103830.30
2018-07-19T11:00:50.541Z,103810.72
2018-07-19T11:02:26.912Z,103623.98
2018-07-19T11:04:05.271Z,103713.30
2018-07-19T11:05:44.757Z,103662.52
2018-07-19T11:07:21.492Z,103600.44
2018-07-19T11:09:00.823Z,103689.17
2018-07-19T11:10:38.739Z,103722.70
2018-07-19T11:12:15.305Z,103771.61
2018-07-19T11:13:53.975Z,103719.05
2018-07-19T11:15:30.959Z,103626.92
2018-07-19T11:17:24.339Z,103493.77
2018-07-19T11:19:01.518Z,103448.08
2018-07-19T11:20:40.275Z,103356.55
2018-07-19T11:22:22.549Z,103216.41
2018-07-19T11:23:59.763Z,103271.95
2018-07-19T11:25:55.388Z,103248.80
2018-07-19T11:27:34.625Z,103139.91
2018-07-19T11:29:12.332Z,102957.83
2018-07-19T11:30:52.662Z,102816.59
2018-07-19T11:32:32.770Z,102722.83
2018-07-19T11:34:10.896Z,102866.63
2018-07-19T11:35:50.193Z,103094.48
2018-07-19T11:37:29.188Z,103273.44
2018-07-19T11:39:08.662Z,103420.97
2018-07-19T11:40:44.961Z,103558.10
2018-07-19T11:42:24.661Z,103357.63
2018-07-19T11:44:02.364Z,103240.81
2018-07-19T11:45:39.855Z,103117.00
2018-07-19T11:47:17.365Z,102824.00
2018-07-19T11:48:55.940Z,102648.55
2018-07-19T11:50:38.383Z,102506.65
2018-07-19T11:52:15.451Z,102417.04
2018-07-19T11:53:52.502Z,102417.92
2018-07-19T11:55:29.647Z,102462.39
2018-07-19T11:57:12.394Z,102485.31
2018-07-19T11:58:50.572Z,102619.02
2018-07-19T12:00:29.364Z,102608.22
2018-07-19T14:10:28.438Z,103458.38
2018-07-19T14:12:05.889Z,103591.47
2018-07-19T14:13:44.329Z,103772.32
2018-07-19T14:15:26.392Z,103679.33
2018-07-19T14:17:02.828Z,103707.53
2018-07-19T14:18:40.539Z,103657.22
2018-07-19T14:22:14.106Z,103677.06
2018-07-19T14:23:53.820Z,103736.91
2018-07-19T14:25:37.707Z,103715.62
2018-07-19T14:27:20.077Z,103672.94
2018-07-19T14:32:52.422Z,103884.20
2018-07-19T14:34:42.995Z,103800.62
2018-07-19T14:36:25.496Z,103877.86
2018-07-19T14:38:13.429Z,103912.65
2018-07-19T14:40:02.656Z,103938.03
2018-07-19T14:41:40.508Z,103951.67
2018-07-19T14:43:17.173Z,103880.39
2018-07-19T14:44:58.383Z,103897.19
2018-07-19T14:46:39.387Z,103993.36
2018-07-19T14:48:19.713Z,103851.77
2018-07-19T14:50:01.218Z,103846.34
2018-07-19T14:51:39.337Z,103952.89
2018-07-19T14:53:17.524Z,104027.34
2018-07-19T14:54:58.507Z,104017.31
2018-07-19T14:56:37.463Z,103886.11
2018-07-19T14:58:14.385Z,103839.80
2018-07-19T14:59:53.217Z,103666.16
2018-07-19T15:01:30.311Z,103708.78
2018-07-19T15:03:08.306Z,103762.22
2018-07-19T15:04:44.796Z,103634.36
2018-07-19T15:06:24.646Z,103524.75
2018-07-19T15:08:03.393Z,103425.48
2018-07-19T15:09:41.654Z,103498.77
2018-07-19T15:11:18.198Z,103740.30
2018-07-19T15:12:58.037Z,103845.91
2018-07-19T15:14:36.619Z,103849.00
2018-07-19T15:16:13.268Z,103647.25
2018-07-19T15:17:53.543Z,103621.84
2018-07-19T15:19:30.736Z,103635.91
2018-07-19T15:21:08.754Z,103618.61
2018-07-19T15:22:47.555Z,103608.16
2018-07-19T15:24:24.498Z,103663.45
2018-07-19T15:26:02.951Z,103686.05
2018-07-19T15:27:42.083Z,103417.75
2018-07-19T15:29:19.947Z,103267.59
2018-07-19T15:31:01.133Z,103217.02
2018-07-19T15:32:39.061Z,103002.33
2018-07-19T15:34:18.443Z,102950.85
2018-07-19T15:35:56.857Z,102956.72
2018-07-19T15:37:33.950Z,103164.44
2018-07-19T15:39:12.042Z,103292.82
2018-07-19T15:41:03.087Z,103365.61
2018-07-19T15:42:43.551Z,103315.71
2018-07-19T15:44:26.761Z,103340.67
2018-07-19T15:46:04.382Z,103375.05
2018-07-19T15:48:19.291Z,103281.83
2018-07-19T15:50:17.704Z,103305.75
2018-07-19T15:58:01.722Z,103178.73
2018-07-19T15:59:40.004Z,103222.82
2018-07-19T16:01:19.725Z,103073.26
2018-07-19T16:02:57.490Z,103034.83
2018-07-19T16:06:53.025Z,103086.02
2018-07-19T16:08:30.493Z,103210.08
2018-07-19T16:10:07.869Z,103328.50
2018-07-19T16:11:51.421Z,103089.41
2018-07-19T16:13:35.007Z,102948.48
2018-07-19T16:15:15.304Z,103006.64
2018-07-19T16:16:52.972Z,102987.68
2018-07-19T16:18:31.317Z,102929.94
2018-07-19T16:20:11.069Z,103049.11
2018-07-19T16:21:49.230Z,102924.45
2018-07-19T16:23:25.774Z,102980.81
2018-07-19T16:25:03.496Z,102930.23
2018-07-19T16:26:41.591Z,102949.59
2018-07-19T16:28:22.911Z,102875.55
2018-07-19T16:29:59.471Z,102751.53
2018-07-19T16:31:40.642Z,102678.54
2018-07-19T16:33:19.923Z,102591.58
2018-07-19T16:34:57.357Z,102578.52
2018-07-19T16:37:10.307Z,102586.98
2018-07-19T16:38:55.314Z,102681.53
2018-07-19T16:40:37.048Z,102712.60
2018-07-19T16:42:15.564Z,102684.16
2018-07-19T16:43:53.925Z,102662.02
2018-07-19T16:45:34.106Z,102672.50
2018-07-19T16:47:26.716Z,102708.89
2018-07-19T16:49:06.472Z,102800.50
2018-07-19T16:51:04.865Z,102845.56
2018-07-19T16:52:44.527Z,102886.52
2018-07-19T16:54:22.772Z,102926.27
2018-07-19T16:55:59.238Z,103015.27
2018-07-19T16:57:44.045Z,102874.40
2018-07-19T16:59:21.271Z,102919.00
2018-07-19T17:01:03.382Z,102844.97
2018-07-19T17:02:42.968Z,102725.89
2018-07-19T17:04:21.325Z,102627.70
2018-07-19T17:05:57.747Z,102540.23
2018-07-19T17:07:34.996Z,102688.52
2018-07-19T17:09:12.934Z,102850.70
2018-07-19T17:10:49.260Z,102940.95
2018-07-19T17:12:25.682Z,103003.25
2018-07-19T17:14:05.593Z,103036.27
2018-07-19T17:15:47.392Z,103054.27
2018-07-19T17:17:24.581Z,103083.66
2018-07-19T17:19:01.601Z,103079.23
2018-07-19T17:20:38.086Z,103103.52
2018-07-19T17:22:17.340Z,103170.88
2018-07-19T17:23:55.315Z,103259.94
2018-07-19T17:25:33.388Z,103271.64
2018-07-19T17:27:10.810Z,103132.42
2018-07-19T17:28:48.222Z,103128.71
2018-07-19T17:30:26.692Z,103141.48
2018-07-19T17:32:07.404Z,103203.27
2018-07-19T17:33:44.159Z,103230.45
2018-07-19T17:35:21.454Z,103241.67
2018-07-19T17:36:59.904Z,103132.35
2018-07-19T17:38:36.512Z,103121.44
2018-07-19T17:40:17.964Z,103093.42
2018-07-19T17:42:02.327Z,102911.42
2018-07-19T17:43:40.351Z,102767.47
2018-07-19T17:45:27.270Z,102670.02
2018-07-19T17:47:05.620Z,102624.12
2018-07-19T17:48:48.556Z,102596.28
2018-07-19T17:50:24.972Z,102575.97
2018-07-19T17:52:04.401Z,102630.41
2018-07-19T17:53:42.016Z,102757.88
2018-07-19T17:55:20.865Z,102576.77
2018-07-19T17:57:08.698Z,102647.88
2018-07-19T17:58:47.599Z,102811.08
2018-07-19T18:00:26.568Z,102882.77
2018-07-19T18:02:03.544Z,102903.48
2018-07-19T18:03:42.317Z,102851.25
2018-07-19T18:05:19.924Z,102898.48
2018-07-19T18:06:57.082Z,103042.94
2018-07-19T18:08:33.634Z,103087.70
2018-07-19T18:10:10.146Z,102993.41
2018-07-19T18:11:47.364Z,102982.99
2018-07-19T18:13:24.672Z,103075.89
2018-07-19T18:15:03.614Z,102981.55
2018-07-19T18:16:41.038Z,102850.58
2018-07-19T18:18:18.695Z,102783.84
2018-07-19T18:19:55.180Z,102715.79
2018-07-19T18:21:32.523Z,102739.67
2018-07-19T18:23:10.063Z,102851.95
2018-07-19T18:24:48.663Z,102925.02
2018-07-19T18:26:28.253Z,103033.33
2018-07-19T18:28:06.452Z,103040.13
2018-07-19T18:29:46.155Z,103012.11
2018-07-19T18:31:25.916Z,102982.32
2018-07-19T18:33:03.064Z,102855.88
2018-07-19T18:34:46.294Z,102695.86
2018-07-19T18:36:24.162Z,102714.30
2018-07-19T18:38:10.244Z,102751.67
2018-07-19T18:39:53.748Z,102664.67
2018-07-19T18:41:31.231Z,102780.50
2018-07-19T18:43:10.519Z,102788.17
2018-07-19T18:44:47.386Z,102896.84
2018-07-19T18:46:24.074Z,102942.85
2018-07-19T18:48:01.717Z,102894.91
2018-07-19T18:49:39.063Z,102793.98
2018-07-19T18:51:19.449Z,102803.80
2018-07-19T18:53:07.423Z,102569.09
2018-07-19T18:54:48.272Z,102592.92
2018-07-19T18:56:25.289Z,102536.62
2018-07-19T18:58:04.407Z,102539.30
2018-07-19T18:59:55.588Z,102542.44
2018-07-19T19:05:16.579Z,102588.80
2018-07-19T19:06:55.110Z,102508.61
2018-07-19T19:08:37.017Z,102565.19
2018-07-19T19:10:24.435Z,102669.33
2018-07-19T19:12:35.404Z,102725.20
2018-07-19T19:14:13.726Z,102659.92
2018-07-19T19:15:55.290Z,102645.48
2018-07-19T19:17:33.665Z,102647.66
2018-07-19T19:19:11.862Z,102536.35
2018-07-19T19:20:50.405Z,102360.27
2018-07-19T19:22:27.522Z,102349.98
2018-07-19T19:24:03.997Z,102317.69
2018-07-19T19:25:40.477Z,102396.80
2018-07-19T19:27:20.334Z,102442.64
2018-07-19T19:28:57.662Z,102583.24
2018-07-19T19:30:35.881Z,102692.16
2018-07-19T19:32:12.553Z,102730.50
2018-07-19T19:33:48.943Z,102691.27
2018-07-19T19:35:25.412Z,102569.13
2018-07-19T19:37:01.779Z,102623.63
2018-07-19T19:38:39.455Z,102730.09
2018-07-19T19:40:18.487Z,102818.05
2018-07-19T19:41:55.755Z,102868.91
2018-07-19T19:43:34.110Z,102884.26
2018-07-19T19:45:12.643Z,102895.45
2018-07-19T19:46:49.518Z,102843.19
2018-07-19T19:48:25.860Z,102754.44
2018-07-19T19:50:03.669Z,102806.19
2018-07-19T19:51:40.695Z,102785.48
2018-07-19T19:53:17.216Z,102801.75
2018-07-19T19:54:54.024Z,102773.69
2018-07-19T19:56:31.290Z,102725.50
2018-07-19T19:58:09.832Z,102722.27
2018-07-19T19:59:47.583Z,102728.64
2018-07-19T20:01:24.431Z,102735.83
2018-07-19T20:03:04.212Z,102696.56
2018-07-19T20:04:46.408Z,102646.50
2018-07-19T20:06:25.568Z,102584.34
2018-07-19T20:08:03.333Z,102508.17
2018-07-19T20:09:44.560Z,102475.33
2018-07-19T20:11:23.423Z,102406.91
2018-07-19T20:13:10.207Z,102364.61
2018-07-19T20:14:49.338Z,102384.78
2018-07-19T20:16:31.598Z,102397.52
2018-07-19T20:18:09.243Z,102428.06
2018-07-19T20:19:50.736Z,102444.25
2018-07-19T20:21:40.303Z,102415.53
2018-07-19T20:23:19.245Z,102460.94
2018-07-19T20:24:59.738Z,102438.38
2018-07-19T20:26:39.010Z,102438.45
2018-07-19T20:28:32.711Z,102420.44
2018-07-19T20:30:16.347Z,102349.22
2018-07-19T20:32:10.490Z,102319.94
2018-07-19T20:33:50.610Z,102269.25
2018-07-19T20:35:37.463Z,102195.43
2018-07-19T20:37:17.838Z,102118.23
2018-07-19T20:38:56.795Z,102046.67
2018-07-19T20:40:34.465Z,101969.05
2018-07-19T20:42:14.837Z,101929.95
2018-07-19T20:43:55.566Z,101898.09
2018-07-19T20:45:33.745Z,101891.83
2018-07-19T20:47:13.136Z,101923.20
2018-07-19T20:48:51.668Z,101862.26
2018-07-19T20:50:28.899Z,101809.72
2018-07-19T20:52:13.177Z,101827.28
2018-07-19T20:53:53.482Z,101815.67
2018-07-19T20:55:34.608Z,101798.00
2018-07-19T20:57:18.302Z,101766.77
2018-07-19T20:58:56.200Z,101718.33
2018-07-19T21:00:36.279Z,101582.03
2018-07-19T21:03:58.955Z,101322.52
2018-07-19T21:05:38.283Z,101311.83
2018-07-19T21:07:17.293Z,101306.47
2018-07-19T21:09:01.683Z,101278.72
2018-07-19T21:10:40.576Z,101271.63
2018-07-19T21:12:21.734Z,101265.30
2018-07-19T21:14:02.097Z,101255.45
2018-07-19T21:15:39.646Z,101285.53
2018-07-19T21:17:19.983Z,101293.14
2018-07-19T21:19:00.830Z,101260.42
2018-07-19T21:20:41.040Z,101205.52
2018-07-19T21:22:17.680Z,101186.72
2018-07-19T21:23:54.203Z,101212.60
2018-07-19T21:25:32.809Z,101235.02
2018-07-19T21:27:11.622Z,101210.84
2018-07-19T21:28:48.108Z,101165.61
2018-07-19T21:30:26.037Z,101084.91
2018-07-19T21:32:06.075Z,101006.73
2018-07-19T21:33:46.652Z,100907.20